UAL2677 KEWR-KIAD
Flight info
| Callsign | UAL2677 |
|---|---|
| Flight time | 0h 44m |
| Altitude | 32000 |
| Route | PARKE HYPER9 |
| Aircraft | B738/M-SDE2E3FGHIRWXY/LB1 |
Departure
| Time | 2026-04-25 13:40 |
|---|---|
| Airport | Newark Liberty International Airport (KEWR) |
Arrival
| Time | 2026-04-25 14:24 |
|---|---|
| Airport | Washington Dulles International Airport (KIAD) |
| Time | Latitude | Longitude | Altitude | Speed | Heading |
|---|---|---|---|---|---|
| 2026-04-25 13:17 | 40.68447 | -74.18386 | 25 ft | 0 kts | 185° |
| 2026-04-25 13:31 | 40.68473 | -74.18383 | 22 ft | 2 kts | 185° |
| 2026-04-25 13:31 | 40.68490 | -74.18382 | 22 ft | 3 kts | 166° |
| 2026-04-25 13:31 | 40.68505 | -74.18392 | 24 ft | 3 kts | 116° |
| 2026-04-25 13:31 | 40.68510 | -74.18415 | 23 ft | 2 kts | 95° |
| 2026-04-25 13:32 | 40.68510 | -74.18426 | 23 ft | 1 kts | 95° |
| 2026-04-25 13:32 | 40.68511 | -74.18427 | 23 ft | 0 kts | 95° |
| 2026-04-25 13:34 | 40.68510 | -74.18427 | 23 ft | 0 kts | 95° |
| 2026-04-25 13:36 | 40.68510 | -74.18425 | 23 ft | 1 kts | 95° |
| 2026-04-25 13:36 | 40.68507 | -74.18371 | 21 ft | 11 kts | 95° |
| 2026-04-25 13:36 | 40.68498 | -74.18234 | 21 ft | 19 kts | 97° |
| 2026-04-25 13:36 | 40.68424 | -74.18052 | 21 ft | 26 kts | 116° |
| 2026-04-25 13:37 | 40.68337 | -74.17815 | 21 ft | 32 kts | 117° |
| 2026-04-25 13:37 | 40.68247 | -74.17663 | 22 ft | 17 kts | 182° |
| 2026-04-25 13:37 | 40.68142 | -74.17721 | 21 ft | 16 kts | 206° |
| 2026-04-25 13:37 | 40.68031 | -74.17793 | 21 ft | 19 kts | 206° |
| 2026-04-25 13:38 | 40.67898 | -74.17878 | 21 ft | 24 kts | 206° |
| 2026-04-25 13:38 | 40.67738 | -74.17980 | 21 ft | 26 kts | 206° |
| 2026-04-25 13:38 | 40.67600 | -74.18033 | 21 ft | 16 kts | 154° |
| 2026-04-25 13:38 | 40.67589 | -74.17917 | 23 ft | 15 kts | 39° |
| 2026-04-25 13:39 | 40.67612 | -74.17900 | 22 ft | 0 kts | 23° |
| 2026-04-25 13:39 | 40.67635 | -74.17886 | 21 ft | 18 kts | 25° |
| 2026-04-25 13:39 | 40.67944 | -74.17688 | 19 ft | 84 kts | 26° |
| 2026-04-25 13:39 | 40.68649 | -74.17240 | 24 ft | 139 kts | 25° |
| 2026-04-25 13:40 | 40.69652 | -74.16629 | 137 ft | 174 kts | 30° |
| 2026-04-25 13:40 | 40.70770 | -74.15920 | 742 ft | 178 kts | 32° |
| 2026-04-25 13:40 | 40.71588 | -74.14788 | 1343 ft | 177 kts | 74° |
| 2026-04-25 13:40 | 40.72059 | -74.13197 | 1620 ft | 206 kts | 57° |
| 2026-04-25 13:41 | 40.73270 | -74.11932 | 1865 ft | 238 kts | 37° |
| 2026-04-25 13:41 | 40.74641 | -74.10577 | 2340 ft | 251 kts | 44° |
| 2026-04-25 13:41 | 40.76051 | -74.09175 | 3046 ft | 260 kts | 31° |
| 2026-04-25 13:41 | 40.77861 | -74.08674 | 3621 ft | 277 kts | 354° |
| 2026-04-25 13:42 | 40.79643 | -74.09587 | 3983 ft | 280 kts | 321° |
| 2026-04-25 13:42 | 40.80785 | -74.11598 | 3998 ft | 274 kts | 287° |
| 2026-04-25 13:42 | 40.81017 | -74.14047 | 4254 ft | 269 kts | 261° |
| 2026-04-25 13:42 | 40.80790 | -74.16494 | 4889 ft | 267 kts | 259° |
| 2026-04-25 13:43 | 40.80515 | -74.18897 | 4985 ft | 269 kts | 258° |
| 2026-04-25 13:43 | 40.80206 | -74.21315 | 5589 ft | 264 kts | 258° |
| 2026-04-25 13:43 | 40.79841 | -74.23674 | 6590 ft | 256 kts | 258° |
| 2026-04-25 13:43 | 40.79421 | -74.25972 | 7302 ft | 260 kts | 258° |
| 2026-04-25 13:44 | 40.78974 | -74.28312 | 7973 ft | 265 kts | 258° |
| 2026-04-25 13:44 | 40.78509 | -74.30694 | 8647 ft | 271 kts | 258° |
| 2026-04-25 13:44 | 40.78030 | -74.33105 | 9418 ft | 274 kts | 257° |
| 2026-04-25 13:44 | 40.77542 | -74.35540 | 10045 ft | 277 kts | 257° |
| 2026-04-25 13:45 | 40.77049 | -74.38047 | 10471 ft | 292 kts | 257° |
| 2026-04-25 13:45 | 40.76536 | -74.40749 | 10652 ft | 314 kts | 257° |
| 2026-04-25 13:45 | 40.76072 | -74.43676 | 10803 ft | 335 kts | 261° |
| 2026-04-25 13:45 | 40.75707 | -74.46745 | 11139 ft | 347 kts | 262° |
| 2026-04-25 13:46 | 40.75356 | -74.49925 | 11792 ft | 350 kts | 263° |
| 2026-04-25 13:46 | 40.75002 | -74.53114 | 12523 ft | 351 kts | 262° |
| 2026-04-25 13:46 | 40.74636 | -74.56320 | 13255 ft | 353 kts | 262° |
| 2026-04-25 13:46 | 40.74264 | -74.59497 | 13968 ft | 355 kts | 262° |
| 2026-04-25 13:47 | 40.73878 | -74.62730 | 14582 ft | 359 kts | 262° |
| 2026-04-25 13:47 | 40.73479 | -74.66037 | 15104 ft | 366 kts | 262° |
| 2026-04-25 13:47 | 40.73077 | -74.69336 | 15792 ft | 368 kts | 262° |
| 2026-04-25 13:47 | 40.72667 | -74.72681 | 16525 ft | 369 kts | 262° |
| 2026-04-25 13:48 | 40.72256 | -74.76026 | 17149 ft | 373 kts | 262° |
| 2026-04-25 13:48 | 40.71835 | -74.79443 | 17740 ft | 377 kts | 262° |
| 2026-04-25 13:48 | 40.71411 | -74.82872 | 18371 ft | 380 kts | 262° |
| 2026-04-25 13:48 | 40.70983 | -74.86332 | 18909 ft | 383 kts | 263° |
| 2026-04-25 13:49 | 40.70551 | -74.89810 | 19440 ft | 386 kts | 263° |
| 2026-04-25 13:49 | 40.70114 | -74.93318 | 20002 ft | 388 kts | 263° |
| 2026-04-25 13:49 | 40.69673 | -74.96847 | 20514 ft | 391 kts | 263° |
| 2026-04-25 13:49 | 40.69229 | -75.00408 | 20985 ft | 395 kts | 264° |
| 2026-04-25 13:50 | 40.68779 | -75.04000 | 21487 ft | 398 kts | 264° |
| 2026-04-25 13:50 | 40.68331 | -75.07560 | 21968 ft | 399 kts | 264° |
| 2026-04-25 13:50 | 40.67963 | -75.11211 | 22029 ft | 406 kts | 267° |
| 2026-04-25 13:50 | 40.67686 | -75.14945 | 22051 ft | 406 kts | 268° |
| 2026-04-25 13:51 | 40.67434 | -75.18631 | 22042 ft | 402 kts | 268° |
| 2026-04-25 13:51 | 40.67177 | -75.22289 | 22059 ft | 402 kts | 268° |
| 2026-04-25 13:51 | 40.66906 | -75.25963 | 22062 ft | 403 kts | 268° |
| 2026-04-25 13:51 | 40.66623 | -75.29633 | 22053 ft | 404 kts | 267° |
| 2026-04-25 13:52 | 40.66334 | -75.33315 | 22059 ft | 404 kts | 267° |
| 2026-04-25 13:52 | 40.65987 | -75.36948 | 22046 ft | 407 kts | 262° |
| 2026-04-25 13:52 | 40.64982 | -75.40470 | 22068 ft | 415 kts | 246° |
| 2026-04-25 13:52 | 40.63555 | -75.43786 | 22043 ft | 416 kts | 244° |
| 2026-04-25 13:53 | 40.62097 | -75.47082 | 22049 ft | 416 kts | 244° |
| 2026-04-25 13:53 | 40.60637 | -75.50382 | 22050 ft | 416 kts | 244° |
| 2026-04-25 13:53 | 40.59193 | -75.53667 | 22051 ft | 415 kts | 244° |
| 2026-04-25 13:53 | 40.57773 | -75.56921 | 22058 ft | 415 kts | 244° |
| 2026-04-25 13:54 | 40.56338 | -75.60227 | 22058 ft | 415 kts | 244° |
| 2026-04-25 13:54 | 40.54908 | -75.63528 | 22050 ft | 415 kts | 244° |
| 2026-04-25 13:54 | 40.53475 | -75.66837 | 22050 ft | 415 kts | 244° |
| 2026-04-25 13:54 | 40.52043 | -75.70142 | 22048 ft | 414 kts | 244° |
| 2026-04-25 13:55 | 40.50642 | -75.73363 | 22037 ft | 399 kts | 245° |
| 2026-04-25 13:55 | 40.49287 | -75.76476 | 21791 ft | 389 kts | 245° |
| 2026-04-25 13:55 | 40.47960 | -75.79531 | 21421 ft | 383 kts | 244° |
| 2026-04-25 13:55 | 40.46644 | -75.82560 | 20982 ft | 378 kts | 244° |
| 2026-04-25 13:56 | 40.45338 | -75.85557 | 20510 ft | 375 kts | 243° |
| 2026-04-25 13:56 | 40.44022 | -75.88500 | 20116 ft | 372 kts | 239° |
| 2026-04-25 13:56 | 40.42301 | -75.91054 | 20084 ft | 378 kts | 228° |
| 2026-04-25 13:56 | 40.40425 | -75.93394 | 20009 ft | 367 kts | 227° |
| 2026-04-25 13:57 | 40.38597 | -75.95652 | 20013 ft | 352 kts | 227° |
| 2026-04-25 13:57 | 40.37433 | -75.97093 | 20011 ft | 343 kts | 228° |
| 2026-04-25 13:57 | 40.35202 | -75.99875 | 19981 ft | 323 kts | 228° |
| 2026-04-25 13:57 | 40.33592 | -76.01898 | 19431 ft | 322 kts | 228° |
| 2026-04-25 13:58 | 40.31959 | -76.03966 | 18971 ft | 322 kts | 228° |
| 2026-04-25 13:58 | 40.30343 | -76.06009 | 18853 ft | 328 kts | 228° |
| 2026-04-25 13:58 | 40.28671 | -76.08129 | 18763 ft | 340 kts | 228° |
| 2026-04-25 13:58 | 40.26960 | -76.10295 | 18628 ft | 344 kts | 228° |
| 2026-04-25 13:59 | 40.25235 | -76.12471 | 18484 ft | 343 kts | 227° |
| 2026-04-25 13:59 | 40.23519 | -76.14634 | 18327 ft | 341 kts | 227° |
| 2026-04-25 13:59 | 40.21811 | -76.16784 | 18177 ft | 339 kts | 227° |
| 2026-04-25 13:59 | 40.20115 | -76.18920 | 18024 ft | 338 kts | 227° |
| 2026-04-25 14:00 | 40.18418 | -76.21057 | 17884 ft | 336 kts | 227° |
| 2026-04-25 14:00 | 40.16751 | -76.23155 | 17744 ft | 335 kts | 227° |
| 2026-04-25 14:00 | 40.15077 | -76.25260 | 17609 ft | 334 kts | 227° |
| 2026-04-25 14:00 | 40.13404 | -76.27360 | 17485 ft | 333 kts | 227° |
| 2026-04-25 14:01 | 40.11787 | -76.29505 | 17326 ft | 330 kts | 235° |
| 2026-04-25 14:01 | 40.10539 | -76.32013 | 17225 ft | 326 kts | 242° |
| 2026-04-25 14:01 | 40.09419 | -76.34556 | 17067 ft | 326 kts | 242° |
| 2026-04-25 14:01 | 40.08285 | -76.37119 | 16940 ft | 326 kts | 242° |
| 2026-04-25 14:02 | 40.07132 | -76.39670 | 16773 ft | 326 kts | 241° |
| 2026-04-25 14:02 | 40.05962 | -76.42217 | 16641 ft | 327 kts | 241° |
| 2026-04-25 14:02 | 40.04789 | -76.44757 | 16507 ft | 327 kts | 241° |
| 2026-04-25 14:02 | 40.04393 | -76.45613 | 16462 ft | 326 kts | 241° |
| 2026-04-25 14:03 | 40.02460 | -76.49790 | 16054 ft | 321 kts | 241° |
| 2026-04-25 14:03 | 40.01310 | -76.52276 | 15737 ft | 318 kts | 241° |
| 2026-04-25 14:03 | 40.00173 | -76.54731 | 15501 ft | 315 kts | 241° |
| 2026-04-25 14:03 | 39.99043 | -76.57172 | 15259 ft | 313 kts | 241° |
| 2026-04-25 14:04 | 39.97921 | -76.59600 | 15016 ft | 312 kts | 241° |
| 2026-04-25 14:04 | 39.96803 | -76.62020 | 14774 ft | 313 kts | 241° |
| 2026-04-25 14:04 | 39.95684 | -76.64425 | 14550 ft | 315 kts | 240° |
| 2026-04-25 14:04 | 39.94542 | -76.66865 | 14320 ft | 315 kts | 240° |
| 2026-04-25 14:05 | 39.93403 | -76.69297 | 14094 ft | 312 kts | 240° |
| 2026-04-25 14:05 | 39.92267 | -76.71724 | 14031 ft | 313 kts | 240° |
| 2026-04-25 14:05 | 39.91133 | -76.74149 | 13994 ft | 312 kts | 240° |
| 2026-04-25 14:05 | 39.90018 | -76.76535 | 13996 ft | 311 kts | 240° |
| 2026-04-25 14:06 | 39.88893 | -76.78943 | 13987 ft | 311 kts | 240° |
| 2026-04-25 14:06 | 39.87760 | -76.81367 | 13990 ft | 312 kts | 240° |
| 2026-04-25 14:06 | 39.86629 | -76.83785 | 13989 ft | 312 kts | 240° |
| 2026-04-25 14:06 | 39.85514 | -76.86168 | 13992 ft | 312 kts | 240° |
| 2026-04-25 14:07 | 39.84385 | -76.88577 | 13979 ft | 312 kts | 240° |
| 2026-04-25 14:07 | 39.83250 | -76.90995 | 13980 ft | 312 kts | 240° |
| 2026-04-25 14:07 | 39.82113 | -76.93421 | 13851 ft | 316 kts | 240° |
| 2026-04-25 14:07 | 39.80958 | -76.95883 | 13488 ft | 317 kts | 240° |
| 2026-04-25 14:08 | 39.79820 | -76.98303 | 13165 ft | 317 kts | 240° |
| 2026-04-25 14:08 | 39.78674 | -77.00738 | 12828 ft | 313 kts | 240° |
| 2026-04-25 14:08 | 39.77539 | -77.03147 | 12511 ft | 309 kts | 240° |
| 2026-04-25 14:08 | 39.76423 | -77.05513 | 12199 ft | 304 kts | 240° |
| 2026-04-25 14:09 | 39.75336 | -77.07815 | 11882 ft | 293 kts | 240° |
| 2026-04-25 14:09 | 39.74292 | -77.10027 | 11585 ft | 282 kts | 240° |
| 2026-04-25 14:09 | 39.73282 | -77.12168 | 11325 ft | 275 kts | 240° |
| 2026-04-25 14:09 | 39.72953 | -77.12864 | 11238 ft | 274 kts | 239° |
| 2026-04-25 14:10 | 39.71300 | -77.16366 | 10800 ft | 273 kts | 239° |
| 2026-04-25 14:10 | 39.70306 | -77.18466 | 10529 ft | 272 kts | 239° |
| 2026-04-25 14:10 | 39.69315 | -77.20559 | 10266 ft | 273 kts | 239° |
| 2026-04-25 14:10 | 39.68289 | -77.22635 | 10009 ft | 273 kts | 233° |
| 2026-04-25 14:11 | 39.66983 | -77.24397 | 9887 ft | 268 kts | 224° |
| 2026-04-25 14:11 | 39.65607 | -77.26002 | 9733 ft | 264 kts | 223° |
| 2026-04-25 14:11 | 39.64247 | -77.27570 | 9600 ft | 262 kts | 224° |
| 2026-04-25 14:11 | 39.62880 | -77.29168 | 9481 ft | 266 kts | 224° |
| 2026-04-25 14:12 | 39.61503 | -77.30801 | 9361 ft | 270 kts | 224° |
| 2026-04-25 14:12 | 39.60123 | -77.32448 | 9236 ft | 268 kts | 224° |
| 2026-04-25 14:12 | 39.58767 | -77.34071 | 9112 ft | 270 kts | 224° |
| 2026-04-25 14:12 | 39.57388 | -77.35720 | 9031 ft | 268 kts | 224° |
| 2026-04-25 14:13 | 39.55958 | -77.37256 | 9000 ft | 268 kts | 215° |
| 2026-04-25 14:13 | 39.54345 | -77.38493 | 9018 ft | 271 kts | 211° |
| 2026-04-25 14:13 | 39.52688 | -77.39682 | 9015 ft | 271 kts | 211° |
| 2026-04-25 14:13 | 39.51051 | -77.40881 | 9017 ft | 270 kts | 212° |
| 2026-04-25 14:14 | 39.49433 | -77.42094 | 9007 ft | 265 kts | 212° |
| 2026-04-25 14:14 | 39.47873 | -77.43273 | 9029 ft | 252 kts | 213° |
| 2026-04-25 14:14 | 39.46375 | -77.44411 | 9037 ft | 246 kts | 213° |
| 2026-04-25 14:14 | 39.44789 | -77.45223 | 8943 ft | 254 kts | 191° |
| 2026-04-25 14:15 | 39.43008 | -77.45295 | 8672 ft | 256 kts | 184° |
| 2026-04-25 14:15 | 39.42412 | -77.45297 | 8571 ft | 255 kts | 184° |
| 2026-04-25 14:15 | 39.39492 | -77.45320 | 8101 ft | 246 kts | 184° |
| 2026-04-25 14:15 | 39.37813 | -77.45337 | 7814 ft | 235 kts | 184° |
| 2026-04-25 14:16 | 39.36203 | -77.45357 | 7537 ft | 228 kts | 184° |
| 2026-04-25 14:16 | 39.34633 | -77.45380 | 7292 ft | 224 kts | 184° |
| 2026-04-25 14:16 | 39.33072 | -77.45404 | 7056 ft | 224 kts | 184° |
| 2026-04-25 14:16 | 39.31495 | -77.45428 | 6765 ft | 229 kts | 184° |
| 2026-04-25 14:17 | 39.29914 | -77.45455 | 6487 ft | 231 kts | 184° |
| 2026-04-25 14:17 | 39.28301 | -77.45479 | 6172 ft | 232 kts | 184° |
| 2026-04-25 14:17 | 39.26678 | -77.45502 | 5872 ft | 232 kts | 184° |
| 2026-04-25 14:17 | 39.25075 | -77.45525 | 5574 ft | 228 kts | 184° |
| 2026-04-25 14:18 | 39.23504 | -77.45547 | 5304 ft | 224 kts | 184° |
| 2026-04-25 14:18 | 39.22472 | -77.45562 | 5163 ft | 222 kts | 184° |
| 2026-04-25 14:18 | 39.20434 | -77.45592 | 4825 ft | 214 kts | 184° |
| 2026-04-25 14:18 | 39.19461 | -77.45605 | 4635 ft | 207 kts | 184° |
| 2026-04-25 14:19 | 39.18049 | -77.45626 | 4360 ft | 198 kts | 184° |
| 2026-04-25 14:19 | 39.16278 | -77.45652 | 4022 ft | 188 kts | 183° |
| 2026-04-25 14:19 | 39.15405 | -77.45664 | 3866 ft | 183 kts | 182° |
| 2026-04-25 14:19 | 39.13751 | -77.45690 | 3554 ft | 178 kts | 181° |
| 2026-04-25 14:20 | 39.12925 | -77.45703 | 3412 ft | 180 kts | 181° |
| 2026-04-25 14:20 | 39.12074 | -77.45715 | 3248 ft | 180 kts | 181° |
| 2026-04-25 14:20 | 39.10449 | -77.45738 | 2912 ft | 173 kts | 180° |
| 2026-04-25 14:20 | 39.09238 | -77.45756 | 2696 ft | 175 kts | 179° |
| 2026-04-25 14:21 | 39.08019 | -77.45773 | 2465 ft | 175 kts | 178° |
| 2026-04-25 14:21 | 39.06792 | -77.45790 | 2212 ft | 177 kts | 178° |
| 2026-04-25 14:21 | 39.05593 | -77.45808 | 1998 ft | 168 kts | 178° |
| 2026-04-25 14:21 | 39.04465 | -77.45826 | 1770 ft | 156 kts | 176° |
| 2026-04-25 14:22 | 39.03406 | -77.45840 | 1528 ft | 152 kts | 177° |
| 2026-04-25 14:22 | 39.02351 | -77.45855 | 1356 ft | 151 kts | 177° |
| 2026-04-25 14:22 | 39.01293 | -77.45870 | 1125 ft | 151 kts | 176° |
| 2026-04-25 14:22 | 39.00242 | -77.45885 | 968 ft | 153 kts | 178° |
| 2026-04-25 14:23 | 38.99197 | -77.45903 | 751 ft | 148 kts | 176° |
| 2026-04-25 14:23 | 38.98165 | -77.45923 | 560 ft | 148 kts | 177° |
| 2026-04-25 14:23 | 38.97135 | -77.45941 | 349 ft | 148 kts | 174° |
| 2026-04-25 14:23 | 38.96183 | -77.45945 | 284 ft | 121 kts | 181° |
| 2026-04-25 14:24 | 38.95555 | -77.45953 | 293 ft | 59 kts | 180° |
| 2026-04-25 14:24 | 38.95217 | -77.45958 | 293 ft | 41 kts | 179° |
| 2026-04-25 14:24 | 38.94980 | -77.45893 | 288 ft | 32 kts | 152° |
| 2026-04-25 14:24 | 38.94860 | -77.45809 | 291 ft | 0 kts | 150° |
| 2026-04-25 14:32 | 38.94859 | -77.45808 | 291 ft | 1 kts | 150° |
| 2026-04-25 14:33 | 38.94835 | -77.45791 | 295 ft | 9 kts | 150° |
| 2026-04-25 14:33 | 38.94754 | -77.45745 | 292 ft | 16 kts | 163° |
| 2026-04-25 14:33 | 38.94620 | -77.45724 | 294 ft | 22 kts | 180° |
| 2026-04-25 14:33 | 38.94473 | -77.45726 | 293 ft | 16 kts | 180° |
| 2026-04-25 14:34 | 38.94429 | -77.45692 | 295 ft | 0 kts | 115° |